Time;durP1;ratioP1;P1;durP2;ratioP2;P2;SDS_P1;SDS_P2;PMS_P1;PMS_P2;Temp;Humidity;BMP_temperature;BMP_pressure;BME280_temperature;BME280_humidity;BME280_pressure;Samples;Min_cycle;Max_cycle;Signal;HPM_P1;HPM_P2
2022/08/18 00:01:22;;;;;;;25.08;18.98;;;18.70;99.90;;;;;;5033573;28;20052;-82
2022/08/18 00:03:49;;;;;;;21.10;16.80;;;18.80;99.90;;;;;;5019863;28;20080;-82
2022/08/18 00:06:18;;;;;;;20.70;16.55;;;18.80;99.90;;;;;;5004401;28;20465;-83
2022/08/18 00:08:45;;;;;;;19.58;15.45;;;18.80;99.90;;;;;;5001896;28;20045;-82
2022/08/18 00:11:11;;;;;;;21.33;16.02;;;18.80;99.90;;;;;;4971630;28;20520;-82
2022/08/18 00:13:37;;;;;;;17.13;14.57;;;18.80;99.90;;;;;;5018015;28;20041;-81
2022/08/18 00:16:03;;;;;;;18.80;14.45;;;18.80;99.90;;;;;;4983749;28;20037;-83
2022/08/18 00:18:29;;;;;;;14.70;13.13;;;18.80;99.90;;;;;;5012537;28;20068;-82
2022/08/18 00:20:55;;;;;;;17.67;13.00;;;18.80;99.90;;;;;;5015990;28;20060;-82
2022/08/18 00:23:22;;;;;;;16.35;13.18;;;18.80;99.90;;;;;;4980480;28;20041;-82
2022/08/18 00:25:48;;;;;;;15.63;11.43;;;18.80;99.90;;;;;;4986802;28;20071;-82
2022/08/18 00:28:15;;;;;;;15.15;11.50;;;18.80;99.90;;;;;;4969769;28;20908;-82
2022/08/18 00:30:41;;;;;;;17.20;10.60;;;18.80;99.90;;;;;;4987023;28;20568;-82
2022/08/18 00:33:07;;;;;;;13.95;11.38;;;18.70;99.90;;;;;;4980939;28;20051;-82
2022/08/18 00:35:37;;;;;;;13.38;12.00;;;18.70;99.90;;;;;;5007702;28;20049;-82
2022/08/18 00:38:06;;;;;;;15.40;10.68;;;18.80;99.90;;;;;;4996429;28;20122;-82
2022/08/18 00:40:40;;;;;;;16.20;11.23;;;18.80;99.90;;;;;;5033891;28;20131;-82
2022/08/18 00:43:11;;;;;;;15.90;12.00;;;18.70;99.90;;;;;;5001968;28;20053;-82
2022/08/18 00:45:39;;;;;;;;;;;18.70;99.90;;;;;;4998519;28;20099;-82
2022/08/18 00:48:07;;;;;;;13.25;9.77;;;18.80;99.90;;;;;;5013149;28;19935;-83
2022/08/18 00:50:43;;;;;;;19.65;11.48;;;18.70;99.90;;;;;;5017217;28;20140;-82
2022/08/18 00:53:16;;;;;;;18.30;11.40;;;18.70;99.90;;;;;;5050570;28;20163;-82
2022/08/18 00:55:44;;;;;;;16.33;10.02;;;18.70;99.90;;;;;;5002628;28;20460;-83
2022/08/18 00:58:21;;;;;;;16.05;10.80;;;18.60;99.90;;;;;;5015491;28;20053;-82
2022/08/18 01:00:49;;;;;;;19.77;12.07;;;18.60;99.90;;;;;;5043029;28;20520;-83
2022/08/18 01:03:19;;;;;;;16.90;12.15;;;18.60;99.90;;;;;;5034046;28;20072;-83
2022/08/18 01:06:10;;;;;;;15.77;11.52;;;18.60;99.90;;;;;;5019050;28;20237;-84
2022/08/18 01:08:37;;;;;;;14.30;10.90;;;18.50;99.90;;;;;;4991369;28;20102;-83
2022/08/18 01:11:03;;;;;;;15.07;9.77;;;18.50;99.90;;;;;;4985385;28;20049;-82
2022/08/18 01:13:33;;;;;;;19.05;11.02;;;18.50;99.90;;;;;;4985975;28;20094;-82
2022/08/18 01:21:49;;;;;;;17.45;11.35;;;18.50;99.90;;;;;;5013978;28;20107;-83
2022/08/18 01:21:50;;;;;;;15.80;9.95;;;18.50;99.90;;;;;;5031696;28;20049;-83
2022/08/18 01:27:17;;;;;;;18.75;11.65;;;18.50;99.90;;;;;;5026742;28;20048;-82
2022/08/18 01:29:50;;;;;;;17.30;11.60;;;18.50;99.90;;;;;;5040103;28;20487;-81
2022/08/18 01:32:19;;;;;;;18.48;12.23;;;18.50;99.90;;;;;;5019316;28;20053;-83
2022/08/18 01:34:51;;;;;;;15.38;11.88;;;18.50;99.90;;;;;;5032701;28;20535;-82
2022/08/18 01:37:20;;;;;;;13.93;10.82;;;18.60;99.90;;;;;;5017558;28;20077;-83
2022/08/18 01:39:46;;;;;;;19.75;12.07;;;18.60;99.90;;;;;;4981962;28;20044;-82
2022/08/18 01:42:18;;;;;;;17.83;11.10;;;18.50;99.90;;;;;;5035438;28;20049;-82
2022/08/18 01:44:46;;;;;;;18.55;12.10;;;18.50;99.90;;;;;;5034613;28;20605;-83
2022/08/18 01:47:15;;;;;;;19.67;11.32;;;18.50;99.90;;;;;;5023909;28;20178;-82
2022/08/18 01:49:42;;;;;;;14.70;11.55;;;18.50;99.90;;;;;;5007626;28;20484;-82
2022/08/18 01:52:10;;;;;;;17.85;12.07;;;18.50;99.90;;;;;;4972699;28;20110;-82
2022/08/18 01:54:36;;;;;;;20.48;11.82;;;18.50;99.90;;;;;;5022520;28;20364;-82
2022/08/18 01:57:02;;;;;;;15.20;11.73;;;18.50;99.90;;;;;;5038623;28;20056;-82
2022/08/18 01:59:28;;;;;;;20.33;13.23;;;18.50;99.90;;;;;;5031938;28;20706;-82
2022/08/18 02:01:55;;;;;;;21.25;12.70;;;18.50;99.90;;;;;;5035724;28;20561;-82
2022/08/18 02:04:23;;;;;;;20.40;12.98;;;18.50;99.90;;;;;;5002710;28;20118;-82
2022/08/18 02:06:49;;;;;;;24.63;12.93;;;18.50;99.90;;;;;;5015237;28;20048;-83
2022/08/18 02:09:16;;;;;;;19.85;14.00;;;18.50;99.90;;;;;;5011368;28;20049;-82
2022/08/18 02:11:42;;;;;;;21.25;13.75;;;18.50;99.90;;;;;;4968229;28;20041;-83
2022/08/18 02:14:08;;;;;;;19.45;14.65;;;18.50;99.90;;;;;;5021801;28;20103;-82
2022/08/18 02:16:34;;;;;;;21.77;14.55;;;18.40;99.90;;;;;;5005125;28;20067;-82
2022/08/18 02:19:00;;;;;;;22.48;15.77;;;18.40;99.90;;;;;;4988179;28;20073;-82
2022/08/18 02:21:26;;;;;;;24.80;15.98;;;18.40;99.90;;;;;;4960525;28;20053;-82
2022/08/18 02:23:52;;;;;;;28.33;16.40;;;18.50;99.90;;;;;;4988392;28;20110;-82
2022/08/18 02:26:18;;;;;;;21.20;15.82;;;18.40;99.90;;;;;;5019901;28;20049;-82
2022/08/18 02:28:45;;;;;;;24.48;16.58;;;18.50;99.90;;;;;;5033478;28;20044;-82
2022/08/18 02:31:17;;;;;;;27.25;16.67;;;18.40;99.90;;;;;;5004820;28;20218;-82
2022/08/18 02:33:44;;;;;;;25.27;16.55;;;18.50;99.90;;;;;;5039831;28;20029;-82
2022/08/18 02:36:12;;;;;;;21.02;15.68;;;18.50;99.90;;;;;;5008577;28;20040;-83
2022/08/18 02:38:39;;;;;;;26.73;17.25;;;18.40;99.90;;;;;;5023555;28;20041;-82
2022/08/18 02:41:08;;;;;;;26.83;18.27;;;18.40;99.90;;;;;;4995397;28;20068;-82
2022/08/18 02:43:35;;;;;;;29.08;20.27;;;18.50;99.90;;;;;;5015919;28;20137;-83
2022/08/18 02:46:01;;;;;;;27.85;20.67;;;18.50;99.90;;;;;;5005328;28;20060;-83
2022/08/18 02:48:33;;;;;;;28.00;21.40;;;18.50;99.90;;;;;;4983159;28;20069;-83
2022/08/18 02:51:15;;;;;;;30.92;21.77;;;18.40;99.90;;;;;;4981868;28;20053;-82
2022/08/18 02:53:43;;;;;;;;;;;18.40;99.90;;;;;;4994767;28;20041;-82
2022/08/18 02:56:22;;;;;;;35.17;23.02;;;18.50;99.90;;;;;;5019743;28;19925;-82
2022/08/18 02:58:51;;;;;;;33.67;24.13;;;18.40;99.90;;;;;;5015400;28;20051;-82
2022/08/18 03:01:18;;;;;;;34.08;24.15;;;18.50;99.90;;;;;;4983821;28;20081;-82
2022/08/18 03:03:45;;;;;;;34.30;24.83;;;18.50;99.90;;;;;;4984571;28;20046;-82
2022/08/18 03:06:11;;;;;;;37.25;25.75;;;18.50;99.90;;;;;;4985554;28;20823;-82
2022/08/18 03:08:37;;;;;;;36.33;25.95;;;18.50;99.90;;;;;;5035515;28;20044;-82
2022/08/18 03:11:03;;;;;;;33.65;25.35;;;18.50;99.90;;;;;;4988428;28;20056;-82
2022/08/18 03:13:29;;;;;;;39.13;26.65;;;18.50;99.90;;;;;;5024783;28;20050;-82
2022/08/18 03:15:55;;;;;;;33.97;24.95;;;18.50;99.90;;;;;;5012742;28;20076;-82
2022/08/18 03:18:22;;;;;;;36.85;26.20;;;18.50;99.90;;;;;;4967635;28;20119;-82
2022/08/18 03:20:49;;;;;;;33.70;25.95;;;18.50;99.90;;;;;;5021787;28;20127;-82
2022/08/18 03:23:15;;;;;;;39.45;24.23;;;18.50;99.90;;;;;;5020575;28;20041;-82
2022/08/18 03:25:44;;;;;;;39.67;26.15;;;18.50;99.90;;;;;;4994104;28;20049;-82
2022/08/18 03:28:11;;;;;;;40.38;25.73;;;18.50;99.90;;;;;;5005071;28;20045;-82
2022/08/18 03:30:37;;;;;;;36.92;25.23;;;18.50;99.90;;;;;;5035324;28;20083;-82
2022/08/18 03:33:03;;;;;;;32.28;23.20;;;18.50;99.90;;;;;;4983941;28;20044;-82
2022/08/18 03:35:29;;;;;;;34.15;23.48;;;18.50;99.90;;;;;;5006907;28;20505;-82
2022/08/18 03:37:59;;;;;;;28.63;22.92;;;18.50;99.90;;;;;;5019208;28;20053;-82
2022/08/18 03:40:25;;;;;;;32.03;23.63;;;18.50;99.90;;;;;;5007032;28;20052;-83
2022/08/18 03:42:51;;;;;;;33.53;23.52;;;18.50;99.90;;;;;;4986921;28;20045;-81
2022/08/18 03:45:17;;;;;;;30.98;22.25;;;18.40;99.90;;;;;;4987662;28;20064;-82
2022/08/18 03:47:44;;;;;;;32.88;22.80;;;18.50;99.90;;;;;;5016141;28;20056;-82
2022/08/18 03:50:11;;;;;;;31.08;22.13;;;18.50;99.90;;;;;;5014276;28;20102;-82
2022/08/18 03:52:37;;;;;;;32.72;21.55;;;18.40;99.90;;;;;;5004611;28;20036;-82
2022/08/18 03:55:05;;;;;;;28.85;20.23;;;18.50;99.90;;;;;;5022080;28;20048;-83
2022/08/18 03:57:32;;;;;;;31.75;21.05;;;18.50;99.90;;;;;;5000655;28;20053;-82
2022/08/18 03:59:58;;;;;;;31.52;22.73;;;18.50;99.90;;;;;;5001345;28;20094;-82
2022/08/18 04:02:24;;;;;;;32.72;22.48;;;18.50;99.90;;;;;;5016736;28;20048;-82
2022/08/18 04:04:50;;;;;;;35.63;22.42;;;18.50;99.90;;;;;;5004148;28;20052;-82
2022/08/18 04:07:17;;;;;;;37.95;22.42;;;18.50;99.90;;;;;;5002970;28;20802;-83
2022/08/18 04:09:47;;;;;;;35.10;21.38;;;18.50;99.90;;;;;;5013654;28;20100;-82
2022/08/18 04:12:15;;;;;;;34.67;21.02;;;18.50;99.90;;;;;;5003838;28;20045;-82
2022/08/18 04:14:45;;;;;;;29.80;18.60;;;18.50;99.90;;;;;;5016203;28;20060;-82
2022/08/18 04:17:11;;;;;;;30.45;20.52;;;18.50;99.90;;;;;;5014814;28;20065;-82
2022/08/18 04:19:37;;;;;;;27.48;19.23;;;18.50;99.90;;;;;;5002002;28;20092;-82
2022/08/18 04:22:04;;;;;;;30.63;19.83;;;18.50;99.90;;;;;;5000105;28;20137;-81
2022/08/18 04:24:33;;;;;;;29.98;20.17;;;18.40;99.90;;;;;;5000039;28;20040;-82
2022/08/18 04:27:01;;;;;;;33.25;20.17;;;18.40;99.90;;;;;;5019880;28;20540;-82
2022/08/18 04:29:28;;;;;;;41.15;21.48;;;18.40;99.90;;;;;;5005723;28;20083;-83
2022/08/18 04:31:54;;;;;;;32.53;21.10;;;18.40;99.90;;;;;;4983763;28;20041;-82
2022/08/18 04:34:21;;;;;;;33.78;21.42;;;18.40;99.90;;;;;;5018514;28;20761;-82
2022/08/18 04:36:52;;;;;;;40.05;22.75;;;18.40;99.90;;;;;;5010370;28;20059;-83
2022/08/18 04:39:19;;;;;;;35.70;22.60;;;18.40;99.90;;;;;;5007042;28;20157;-82
2022/08/18 04:41:47;;;;;;;33.28;21.23;;;18.40;99.90;;;;;;5015215;28;20083;-83
2022/08/18 04:44:16;;;;;;;29.60;21.15;;;18.40;99.90;;;;;;5016745;28;20107;-82
2022/08/18 04:46:49;;;;;;;29.98;21.20;;;18.40;99.90;;;;;;4980347;28;20049;-82
2022/08/18 04:49:17;;;;;;;33.20;22.75;;;18.40;99.90;;;;;;5009265;28;20088;-82
2022/08/18 04:53:43;;;;;;;38.85;23.25;;;18.30;99.90;;;;;;4989115;28;20041;-83
2022/08/18 04:54:37;;;;;;;32.22;21.55;;;18.40;99.90;;;;;;5006669;28;20048;-82
2022/08/18 04:57:15;;;;;;;33.22;21.17;;;18.30;99.90;;;;;;5000765;28;20529;-82
2022/08/18 04:59:45;;;;;;;31.88;21.52;;;18.40;99.90;;;;;;5003043;28;20037;-82
2022/08/18 05:02:12;;;;;;;27.42;21.65;;;18.30;99.90;;;;;;5011919;28;20103;-82
2022/08/18 05:04:40;;;;;;;30.15;22.05;;;18.40;99.90;;;;;;4972975;28;20037;-82
2022/08/18 05:07:11;;;;;;;30.90;22.08;;;18.30;99.90;;;;;;5015779;28;20044;-83
2022/08/18 05:09:38;;;;;;;29.95;21.50;;;18.40;99.90;;;;;;5001067;28;20044;-82
2022/08/18 05:12:07;;;;;;;23.65;19.60;;;18.40;99.90;;;;;;4998696;28;20071;-82
2022/08/18 05:14:34;;;;;;;33.00;21.23;;;18.30;99.90;;;;;;5028116;28;20070;-81
2022/08/18 05:17:02;;;;;;;22.67;20.27;;;18.30;99.90;;;;;;5027594;28;20135;-82
2022/08/18 05:19:29;;;;;;;28.60;19.55;;;18.30;99.90;;;;;;5013361;28;20052;-81
2022/08/18 05:21:57;;;;;;;30.67;20.48;;;18.30;99.90;;;;;;5001537;28;20048;-82
2022/08/18 05:24:26;;;;;;;28.40;20.55;;;18.30;99.90;;;;;;4980526;28;20470;-82
2022/08/18 05:26:53;;;;;;;28.17;20.10;;;18.30;99.90;;;;;;5018785;28;20060;-81
2022/08/18 05:29:20;;;;;;;30.10;20.15;;;18.30;99.90;;;;;;5018574;28;20049;-82
2022/08/18 05:31:48;;;;;;;28.20;20.17;;;18.30;99.90;;;;;;5018872;28;20621;-82
2022/08/18 05:34:15;;;;;;;30.38;20.77;;;18.30;99.90;;;;;;5016585;28;20064;-82
2022/08/18 05:36:47;;;;;;;36.20;21.35;;;18.30;99.90;;;;;;4984326;28;20140;-82
2022/08/18 05:39:17;;;;;;;28.60;19.55;;;18.30;99.90;;;;;;4996719;28;20732;-82
2022/08/18 05:42:00;;;;;;;27.55;20.02;;;18.30;99.90;;;;;;5006415;28;20045;-82
2022/08/18 05:44:28;;;;;;;26.40;20.75;;;18.30;99.90;;;;;;5012232;28;20107;-82
2022/08/18 05:47:06;;;;;;;29.17;20.92;;;18.40;99.90;;;;;;5017598;28;20507;-82
2022/08/18 05:49:34;;;;;;;24.42;19.67;;;18.40;99.90;;;;;;5016525;28;20508;-82
2022/08/18 05:52:06;;;;;;;25.67;21.30;;;18.50;99.90;;;;;;5007220;28;20051;-82
2022/08/18 05:57:36;;;;;;;27.13;20.52;;;18.50;99.90;;;;;;4997996;28;20053;-80
2022/08/18 06:00:05;;;;;;;28.52;21.90;;;18.60;99.90;;;;;;5017548;28;20688;-80
2022/08/18 06:03:11;;;;;;;31.92;20.85;;;18.60;99.90;;;;;;5015635;28;20041;-80
2022/08/18 06:05:45;;;;;;;32.25;22.95;;;18.60;99.90;;;;;;5016095;28;20124;-80
2022/08/18 06:08:13;;;;;;;29.50;21.80;;;18.70;99.90;;;;;;5001627;28;20049;-79
2022/08/18 06:10:47;;;;;;;28.47;21.87;;;18.80;99.90;;;;;;5014859;28;20568;-80
2022/08/18 06:13:19;;;;;;;28.20;22.35;;;18.80;99.90;;;;;;5005770;28;20075;-78
2022/08/18 06:15:58;;;;;;;27.90;21.27;;;18.80;99.90;;;;;;5032077;28;20041;-82
2022/08/18 06:18:43;;;;;;;21.88;19.58;;;18.80;99.90;;;;;;4988130;28;20571;-83
2022/08/18 06:21:30;;;;;;;26.00;19.77;;;18.80;99.90;;;;;;5002797;28;20168;-83
2022/08/18 06:24:07;;;;;;;22.92;19.10;;;18.90;99.90;;;;;;5029698;28;20048;-80
2022/08/18 06:26:56;;;;;;;26.10;19.40;;;18.90;99.90;;;;;;5018213;28;20052;-81
2022/08/18 06:29:30;;;;;;;22.00;18.30;;;19.00;99.90;;;;;;5051621;28;20049;-86
2022/08/18 06:32:18;;;;;;;23.08;18.17;;;19.10;99.90;;;;;;5004985;28;20068;-83
2022/08/18 06:34:51;;;;;;;20.70;16.33;;;19.30;99.90;;;;;;5016224;28;20052;-73
2022/08/18 06:37:32;;;;;;;16.85;15.13;;;19.40;99.90;;;;;;4994534;28;20760;-74
2022/08/18 06:39:58;;;;;;;14.88;13.32;;;19.50;99.90;;;;;;5005648;28;21914;-75
2022/08/18 06:42:29;;;;;;;18.85;13.23;;;19.60;99.90;;;;;;5003549;28;20098;-75
2022/08/18 06:45:07;;;;;;;15.60;11.48;;;19.80;99.90;;;;;;5020803;28;20044;-82
2022/08/18 06:48:13;;;;;;;16.73;12.25;;;19.80;99.90;;;;;;5036372;28;21939;-81
2022/08/18 06:50:57;;;;;;;15.65;11.90;;;20.00;99.90;;;;;;5001600;28;20670;-80
2022/08/18 06:53:55;;;;;;;15.85;8.95;;;20.00;99.90;;;;;;5014584;28;20045;-81
2022/08/18 06:56:47;;;;;;;14.82;10.05;;;20.00;99.90;;;;;;5017515;28;20056;-81
2022/08/18 06:59:13;;;;;;;12.73;9.10;;;20.00;99.90;;;;;;5013262;28;20045;-81
2022/08/18 07:01:39;;;;;;;13.52;9.73;;;19.90;99.90;;;;;;4984111;28;20041;-82
2022/08/18 07:04:05;;;;;;;18.95;10.93;;;20.00;99.90;;;;;;4986503;28;20167;-81
2022/08/18 07:06:31;;;;;;;14.20;10.15;;;20.10;99.90;;;;;;5001656;28;20059;-84
2022/08/18 07:09:19;;;;;;;11.85;10.02;;;20.10;99.90;;;;;;4994873;28;20050;-80
2022/08/18 07:12:07;;;;;;;16.95;13.20;;;20.10;99.90;;;;;;4998777;28;20048;-82
2022/08/18 07:14:46;;;;;;;22.60;18.08;;;20.10;99.90;;;;;;5031057;28;20080;-76
2022/08/18 07:17:22;;;;;;;15.63;10.27;;;20.30;99.90;;;;;;5029173;28;20053;-82
2022/08/18 07:20:02;;;;;;;11.90;9.18;;;20.50;99.90;;;;;;5016405;28;20051;-81
2022/08/18 07:22:28;;;;;;;12.85;10.15;;;20.80;99.90;;;;;;5017390;28;20048;-84
2022/08/18 07:24:58;;;;;;;9.65;6.72;;;20.90;99.90;;;;;;5013105;28;20052;-82
2022/08/18 07:27:51;;;;;;;12.52;11.25;;;20.90;99.90;;;;;;5003533;28;20052;-79
2022/08/18 07:30:20;;;;;;;10.45;7.90;;;20.80;99.90;;;;;;5001409;28;20041;-82
2022/08/18 07:33:17;;;;;;;16.05;13.50;;;20.70;99.90;;;;;;4998021;28;20041;-82
2022/08/18 07:36:02;;;;;;;10.55;7.60;;;20.60;99.90;;;;;;5010180;28;20135;-82
2022/08/18 07:38:41;;;;;;;14.10;8.68;;;20.50;99.90;;;;;;5000068;28;20063;-82
2022/08/18 07:41:22;;;;;;;10.10;9.02;;;20.50;99.90;;;;;;5011075;28;20099;-84
2022/08/18 07:43:51;;;;;;;10.00;8.10;;;20.50;99.90;;;;;;5010768;28;20120;-76
2022/08/18 07:46:30;;;;;;;8.68;6.43;;;20.30;99.90;;;;;;5033684;28;20053;-86
2022/08/18 07:48:58;;;;;;;8.38;6.18;;;20.30;99.90;;;;;;5011666;28;20524;-88
2022/08/18 07:51:31;;;;;;;11.60;6.53;;;20.30;99.90;;;;;;5005652;28;20045;-87
2022/08/18 07:54:14;;;;;;;10.68;7.22;;;20.20;99.90;;;;;;4988675;28;20044;-87
2022/08/18 07:57:01;;;;;;;7.63;5.63;;;20.20;99.90;;;;;;4986475;28;20057;-87
2022/08/18 08:00:09;;;;;;;9.15;8.25;;;20.10;99.90;;;;;;5054628;28;20839;-88
2022/08/18 08:03:21;;;;;;;10.18;9.10;;;20.10;99.90;;;;;;5019825;28;20049;-88
2022/08/18 08:06:03;;;;;;;7.10;6.40;;;20.30;99.90;;;;;;5021744;28;20517;-89
2022/08/18 08:08:43;;;;;;;;;;;20.90;99.90;;;;;;5016365;28;20048;-88
2022/08/18 08:11:12;;;;;;;5.85;5.28;;;21.00;99.90;;;;;;5005920;28;19927;-88
2022/08/18 08:14:03;;;;;;;5.85;4.72;;;21.20;99.90;;;;;;5026756;28;20115;-87
2022/08/18 08:16:59;;;;;;;9.23;6.50;;;21.10;99.90;;;;;;5017548;28;20106;-85
2022/08/18 08:20:07;;;;;;;12.27;10.63;;;21.20;99.90;;;;;;5001770;28;20049;-85
2022/08/18 08:22:49;;;;;;;7.30;4.72;;;21.00;99.90;;;;;;5002174;28;20902;-83
2022/08/18 08:25:25;;;;;;;7.32;4.95;;;21.10;99.90;;;;;;4996727;28;20516;-81
2022/08/18 08:28:06;;;;;;;13.63;12.23;;;21.10;99.90;;;;;;5004481;28;20053;-85
2022/08/18 08:30:54;;;;;;;11.07;7.03;;;21.10;99.90;;;;;;4996899;28;20045;-86
2022/08/18 08:33:32;;;;;;;9.50;5.95;;;21.20;99.90;;;;;;5030364;28;20049;-84
2022/08/18 08:36:09;;;;;;;9.30;5.03;;;21.20;99.90;;;;;;5015938;28;20049;-85
2022/08/18 08:39:10;;;;;;;7.68;5.13;;;21.10;99.90;;;;;;4984973;28;20939;-85
2022/08/18 08:41:49;;;;;;;9.23;3.97;;;21.00;99.90;;;;;;5014434;28;20123;-86
2022/08/18 08:44:33;;;;;;;5.05;3.60;;;21.00;99.90;;;;;;5000763;28;20468;-86
2022/08/18 08:47:16;;;;;;;5.82;3.63;;;20.90;99.90;;;;;;5030514;28;20049;-85
2022/08/18 08:50:00;;;;;;;8.38;3.67;;;20.80;99.90;;;;;;4993578;28;20126;-85
2022/08/18 08:52:35;;;;;;;6.85;3.90;;;20.70;99.90;;;;;;5012489;28;20528;-86
2022/08/18 08:55:14;;;;;;;7.47;3.70;;;20.70;99.90;;;;;;5024367;28;20131;-86
2022/08/18 08:57:49;;;;;;;11.70;9.23;;;20.60;99.90;;;;;;5008581;28;20417;-85
2022/08/18 09:00:15;;;;;;;7.80;5.55;;;20.60;99.90;;;;;;5027660;28;20138;-82
2022/08/18 09:02:47;;;;;;;21.08;16.92;;;20.60;99.90;;;;;;4989965;28;20049;-85
2022/08/18 09:05:49;;;;;;;25.60;22.27;;;20.60;99.90;;;;;;5011532;28;20045;-84
2022/08/18 09:08:42;;;;;;;11.43;5.07;;;20.60;99.90;;;;;;5004199;28;20045;-85
2022/08/18 09:11:44;;;;;;;14.30;7.53;;;20.50;99.90;;;;;;4993012;28;20049;-87
2022/08/18 09:14:54;;;;;;;21.83;16.77;;;20.50;99.90;;;;;;4996448;28;20049;-86
2022/08/18 09:17:46;;;;;;;13.18;5.65;;;20.50;99.90;;;;;;4998643;28;20072;-86
2022/08/18 09:20:41;;;;;;;9.90;5.40;;;20.50;99.90;;;;;;4984102;28;20124;-85
2022/08/18 09:23:12;;;;;;;12.70;6.15;;;20.50;99.90;;;;;;4986414;28;20130;-86
2022/08/18 09:25:38;;;;;;;13.05;10.32;;;20.50;99.90;;;;;;5020649;28;20382;-85
2022/08/18 09:28:26;;;;;;;12.23;5.93;;;20.60;99.90;;;;;;4999890;28;20114;-86
2022/08/18 09:31:02;;;;;;;14.20;8.23;;;20.90;99.90;;;;;;4978840;28;20037;-85
2022/08/18 09:33:42;;;;;;;13.52;6.45;;;21.10;99.90;;;;;;4997944;28;20041;-86
2022/08/18 09:36:27;;;;;;;12.88;5.97;;;21.60;99.90;;;;;;4996255;28;20136;-85
2022/08/18 09:42:00;;;;;;;7.13;4.20;;;22.20;99.90;;;;;;5030459;28;20064;-84
2022/08/18 09:44:45;;;;;;;10.13;5.10;;;22.30;99.90;;;;;;4992264;28;20572;-86
2022/08/18 09:47:23;;;;;;;8.38;5.15;;;22.60;99.90;;;;;;5000846;28;20055;-87
2022/08/18 09:49:52;;;;;;;8.63;4.90;;;22.70;99.90;;;;;;5003261;28;20049;-89
2022/08/18 09:52:21;;;;;;;8.32;3.55;;;22.80;99.90;;;;;;5004826;28;20033;-87
2022/08/18 09:54:58;;;;;;;10.45;3.92;;;22.90;99.90;;;;;;4984946;28;20041;-88
2022/08/18 09:57:31;;;;;;;7.00;3.17;;;22.90;99.90;;;;;;5018905;28;20053;-88
2022/08/18 10:00:01;;;;;;;6.53;3.70;;;22.90;99.90;;;;;;5000894;28;20067;-88
2022/08/18 10:02:36;;;;;;;6.28;2.70;;;22.90;99.90;;;;;;5006347;28;20115;-87
2022/08/18 10:05:18;;;;;;;4.90;2.58;;;22.80;99.90;;;;;;5001994;28;20103;-87
2022/08/18 10:08:04;;;;;;;5.97;2.28;;;22.80;99.90;;;;;;5021689;28;20071;-87
2022/08/18 10:10:38;;;;;;;5.32;2.60;;;22.90;99.90;;;;;;5022772;28;20037;-87
2022/08/18 10:13:07;;;;;;;4.22;2.65;;;22.90;99.90;;;;;;5003892;28;20558;-88
2022/08/18 10:15:59;;;;;;;6.65;2.65;;;22.90;99.90;;;;;;4985486;28;20033;-87
2022/08/18 10:18:59;;;;;;;15.15;12.93;;;22.90;99.90;;;;;;4993774;28;20051;-84
2022/08/18 10:21:29;;;;;;;55.55;50.20;;;22.90;99.90;;;;;;4987336;28;20467;-85
2022/08/18 10:24:04;;;;;;;19.65;17.67;;;22.90;99.90;;;;;;4997170;28;20055;-85
2022/08/18 10:26:30;;;;;;;8.52;5.38;;;22.80;99.90;;;;;;5000526;28;20125;-85
2022/08/18 10:29:05;;;;;;;28.85;26.05;;;22.90;99.90;;;;;;4998580;28;20128;-85
2022/08/18 10:31:49;;;;;;;7.57;5.53;;;22.90;99.90;;;;;;5000024;28;20409;-85
2022/08/18 10:34:51;;;;;;;6.40;4.40;;;23.10;99.90;;;;;;4998154;28;20041;-84
2022/08/18 10:37:41;;;;;;;8.88;7.05;;;23.00;99.90;;;;;;5011562;28;20795;-85
2022/08/18 10:40:12;;;;;;;3.58;2.22;;;23.10;99.90;;;;;;5014546;28;20463;-84
2022/08/18 10:42:41;;;;;;;13.07;10.68;;;23.40;99.90;;;;;;5010449;28;20120;-85
2022/08/18 10:45:13;;;;;;;10.98;8.50;;;24.30;99.90;;;;;;5009413;28;20041;-85
2022/08/18 10:47:41;;;;;;;11.15;9.98;;;25.50;99.90;;;;;;5007632;28;20564;-86
2022/08/18 10:50:18;;;;;;;5.40;3.83;;;26.70;99.90;;;;;;4983171;28;20041;-85
2022/08/18 10:53:03;;;;;;;6.20;2.00;;;27.30;99.90;;;;;;5015833;28;20618;-86
2022/08/18 10:55:39;;;;;;;7.22;6.53;;;28.20;99.90;;;;;;4983463;28;20612;-84
2022/08/18 10:58:05;;;;;;;4.90;2.22;;;28.60;99.90;;;;;;5009840;28;20146;-86
2022/08/18 11:01:13;;;;;;;5.45;3.42;;;28.40;99.90;;;;;;4997019;28;20048;-84
2022/08/18 11:03:47;;;;;;;4.78;2.60;;;28.70;99.90;;;;;;5017634;28;20055;-84
2022/08/18 11:06:22;;;;;;;3.88;2.47;;;29.10;99.90;;;;;;5019406;28;20064;-83
2022/08/18 11:08:52;;;;;;;2.70;1.55;;;29.30;99.90;;;;;;5003019;28;20049;-83
2022/08/18 11:11:25;;;;;;;4.60;3.10;;;29.50;99.90;;;;;;4985391;28;20037;-85
2022/08/18 11:14:16;;;;;;;4.88;2.35;;;29.30;99.90;;;;;;4984399;28;20670;-81
2022/08/18 11:16:42;;;;;;;3.97;1.75;;;28.60;99.90;;;;;;5003472;28;20045;-83
2022/08/18 11:19:15;;;;;;;4.53;2.25;;;28.00;99.90;;;;;;5019511;28;20462;-82
2022/08/18 11:21:46;;;;;;;4.05;1.42;;;27.50;99.90;;;;;;5035665;28;20055;-83
2022/08/18 11:24:23;;;;;;;4.18;2.13;;;26.80;99.90;;;;;;5015900;28;20079;-83
2022/08/18 11:27:04;;;;;;;5.32;1.27;;;26.50;99.90;;;;;;5019118;28;20083;-82
2022/08/18 11:29:38;;;;;;;3.35;1.40;;;26.20;99.90;;;;;;5031604;28;20049;-82
2022/08/18 11:32:26;;;;;;;4.13;1.30;;;25.70;99.90;;;;;;5001480;28;21112;-82
2022/08/18 11:34:58;;;;;;;3.67;1.63;;;25.50;99.90;;;;;;5002366;28;20072;-82
2022/08/18 11:37:45;;;;;;;5.05;2.35;;;25.40;99.90;;;;;;5002085;28;20113;-82
2022/08/18 11:40:34;;;;;;;4.45;1.83;;;25.10;99.90;;;;;;5035557;28;20120;-83
2022/08/18 11:43:25;;;;;;;4.45;1.77;;;25.00;99.90;;;;;;5034105;28;20491;-83
2022/08/18 11:45:58;;;;;;;5.32;1.80;;;24.90;99.90;;;;;;5033274;28;20121;-83
2022/08/18 11:48:27;;;;;;;4.88;2.00;;;24.90;99.90;;;;;;5017478;28;20059;-83
2022/08/18 11:51:02;;;;;;;4.22;1.63;;;25.00;99.90;;;;;;4999000;28;20052;-83
2022/08/18 11:53:32;;;;;;;5.35;2.50;;;25.10;99.90;;;;;;5009174;28;20798;-75
2022/08/18 11:56:10;;;;;;;6.10;3.10;;;25.40;99.90;;;;;;5033391;28;20807;-84
2022/08/18 11:58:38;;;;;;;7.50;5.00;;;25.40;99.90;;;;;;5017156;28;20045;-83
2022/08/18 12:01:07;;;;;;;8.65;7.60;;;25.30;99.90;;;;;;5014065;28;20159;-83
2022/08/18 12:03:47;;;;;;;9.65;7.50;;;25.30;99.90;;;;;;5003026;28;20049;-83
2022/08/18 12:06:19;;;;;;;9.27;6.60;;;25.20;99.90;;;;;;5017508;28;20114;-83
2022/08/18 12:08:53;;;;;;;4.03;1.95;;;25.40;99.90;;;;;;4999747;28;20475;-85
2022/08/18 12:11:24;;;;;;;4.97;2.63;;;25.60;99.90;;;;;;5034527;28;20118;-84
2022/08/18 12:14:17;;;;;;;;;;;25.90;99.90;;;;;;5032059;28;20048;-85
2022/08/18 12:16:43;;;;;;;8.05;6.18;;;26.40;99.90;;;;;;5000287;28;19931;-84
2022/08/18 12:19:12;;;;;;;10.98;9.18;;;26.80;99.90;;;;;;5000146;28;20045;-84
2022/08/18 12:21:40;;;;;;;5.18;1.90;;;27.20;99.90;;;;;;5001211;28;20070;-79
2022/08/18 12:24:18;;;;;;;4.75;2.15;;;27.10;99.90;;;;;;5029557;28;20060;-84
2022/08/18 12:26:44;;;;;;;13.80;12.43;;;27.50;99.90;;;;;;5034381;28;20049;-83
2022/08/18 12:29:10;;;;;;;51.40;46.67;;;27.40;99.90;;;;;;4965284;28;20489;-79
2022/08/18 12:31:37;;;;;;;4.63;2.03;;;27.10;99.90;;;;;;5011567;28;20043;-78
2022/08/18 12:34:03;;;;;;;3.67;1.40;;;26.60;99.90;;;;;;4998800;28;20353;-77
2022/08/18 12:36:30;;;;;;;4.03;1.70;;;26.70;99.90;;;;;;4986066;28;20045;-85
2022/08/18 12:38:56;;;;;;;2.33;1.27;;;27.40;99.90;;;;;;5013666;28;20052;-87
2022/08/18 12:41:23;;;;;;;3.72;1.60;;;28.10;99.90;;;;;;5001226;28;20542;-87
2022/08/18 12:43:49;;;;;;;3.05;1.50;;;28.70;99.90;;;;;;5001813;28;20075;-87
2022/08/18 12:46:15;;;;;;;3.13;1.10;;;28.60;99.90;;;;;;5029771;28;20116;-84
2022/08/18 12:48:41;;;;;;;3.10;1.77;;;28.30;99.90;;;;;;5019364;28;20053;-87
2022/08/18 12:51:08;;;;;;;4.10;2.60;;;27.80;99.90;;;;;;5001392;28;20033;-85
2022/08/18 12:53:34;;;;;;;7.50;6.13;;;27.60;99.90;;;;;;4984713;28;20363;-85
2022/08/18 12:56:00;;;;;;;8.60;7.68;;;27.50;99.90;;;;;;4999323;28;20796;-86
2022/08/18 12:58:27;;;;;;;4.25;2.42;;;27.60;99.90;;;;;;5009241;28;20048;-86
2022/08/18 13:00:54;;;;;;;7.97;7.10;;;27.80;99.90;;;;;;5012934;28;20052;-86
2022/08/18 13:03:20;;;;;;;8.05;7.18;;;28.50;99.90;;;;;;5000700;28;20412;-85
2022/08/18 13:05:46;;;;;;;6.93;4.65;;;29.30;99.90;;;;;;4981457;28;20072;-91
2022/08/18 13:08:19;;;;;;;3.97;1.80;;;29.90;99.90;;;;;;4983516;28;20041;-86
2022/08/18 13:10:46;;;;;;;3.70;1.85;;;30.10;99.90;;;;;;5016983;28;20083;-89
2022/08/18 13:13:18;;;;;;;12.23;11.05;;;30.80;99.90;;;;;;4986289;28;20484;-91
2022/08/18 13:15:45;;;;;;;7.75;6.95;;;30.90;98.60;;;;;;5017330;28;20040;-88
2022/08/18 13:18:13;;;;;;;5.30;3.88;;;30.10;98.50;;;;;;5033199;28;20257;-89
2022/08/18 13:20:41;;;;;;;4.78;2.95;;;29.50;99.30;;;;;;5018767;28;20182;-84